createdAt,value
2022-08-03T00:01:39.057Z,17.45
2022-08-03T00:04:07.171Z,17.28
2022-08-03T00:06:37.116Z,17.34
2022-08-03T00:09:05.507Z,17.41
2022-08-03T00:11:32.308Z,17.41
2022-08-03T00:13:58.906Z,17.43
2022-08-03T00:16:26.440Z,17.41
2022-08-03T00:18:53.254Z,17.40
2022-08-03T00:21:19.937Z,17.31
2022-08-03T00:23:52.429Z,17.25
2022-08-03T00:26:20.923Z,17.21
2022-08-03T00:28:48.095Z,17.27
2022-08-03T00:31:14.722Z,17.21
2022-08-03T00:33:58.936Z,17.21
2022-08-03T00:36:27.657Z,17.18
2022-08-03T00:38:54.584Z,17.23
2022-08-03T00:41:21.481Z,17.21
2022-08-03T00:43:48.227Z,17.19
2022-08-03T00:46:19.231Z,17.18
2022-08-03T00:48:51.504Z,17.04
2022-08-03T00:51:19.239Z,16.99
2022-08-03T00:53:46.184Z,17.01
2022-08-03T00:56:16.986Z,16.96
2022-08-03T00:58:47.108Z,16.91
2022-08-03T01:01:14.424Z,16.85
2022-08-03T01:03:41.244Z,16.70
2022-08-03T01:06:13.409Z,16.76
2022-08-03T01:08:56.970Z,16.71
2022-08-03T01:11:23.636Z,16.67
2022-08-03T01:14:17.906Z,16.52
2022-08-03T01:16:54.681Z,16.50
2022-08-03T01:19:24.214Z,16.52
2022-08-03T01:21:51.011Z,16.51
2022-08-03T01:24:35.174Z,16.36
2022-08-03T01:27:11.939Z,16.23
2022-08-03T01:30:01.282Z,16.14
2022-08-03T01:32:58.629Z,16.16
2022-08-03T01:35:38.622Z,16.07
2022-08-03T01:38:23.893Z,16.13
2022-08-03T01:40:56.253Z,16.10
2022-08-03T01:44:27.043Z,16.13
2022-08-03T01:46:16.908Z,16.13
2022-08-03T01:48:46.384Z,16.20
2022-08-03T01:51:15.632Z,16.15
2022-08-03T01:53:43.357Z,16.12
2022-08-03T01:56:11.330Z,16.09
2022-08-03T01:58:40.781Z,16.05
2022-08-03T02:01:09.807Z,16.08
2022-08-03T02:03:59.744Z,16.03
2022-08-03T02:06:59.778Z,16.01
2022-08-03T02:09:17.919Z,15.97
2022-08-03T02:11:46.795Z,15.97
2022-08-03T02:14:16.216Z,15.83
2022-08-03T02:16:45.532Z,15.72
2022-08-03T02:19:13.178Z,15.58
2022-08-03T02:21:57.233Z,15.69
2022-08-03T02:24:29.064Z,15.63
2022-08-03T02:26:57.136Z,15.66
2022-08-03T02:29:40.286Z,15.60
2022-08-03T02:32:11.572Z,15.65
2022-08-03T02:34:40.102Z,15.71
2022-08-03T02:37:10.364Z,15.68
2022-08-03T02:39:38.851Z,15.57
2022-08-03T02:42:08.656Z,15.52
2022-08-03T02:44:37.676Z,15.50
2022-08-03T02:47:08.168Z,15.50
2022-08-03T02:49:50.571Z,15.51
2022-08-03T02:52:21.509Z,15.48
2022-08-03T02:54:51.276Z,15.48
2022-08-03T02:57:20.181Z,15.39
2022-08-03T02:59:48.006Z,15.43
2022-08-03T03:02:17.084Z,15.38
2022-08-03T03:05:51.764Z,15.27
2022-08-03T03:07:33.928Z,15.30
2022-08-03T03:10:10.712Z,15.18
2022-08-03T03:12:39.126Z,15.26
2022-08-03T03:15:06.712Z,15.18
2022-08-03T03:17:34.388Z,14.98
2022-08-03T03:20:01.690Z,14.98
2022-08-03T03:22:29.529Z,14.90
2022-08-03T03:24:56.525Z,14.91
2022-08-03T03:27:25.608Z,15.00
2022-08-03T03:29:54.360Z,15.02
2022-08-03T03:32:21.109Z,15.02
2022-08-03T03:34:48.207Z,15.11
2022-08-03T03:37:14.864Z,15.10
2022-08-03T03:39:41.526Z,15.14
2022-08-03T03:42:08.251Z,15.17
2022-08-03T03:44:34.979Z,15.11
2022-08-03T03:47:01.735Z,15.12
2022-08-03T03:49:32.292Z,15.14
2022-08-03T03:51:59.056Z,15.19
2022-08-03T03:54:25.673Z,15.15
2022-08-03T03:56:56.151Z,15.25
2022-08-03T03:59:22.832Z,15.31
2022-08-03T04:01:59.171Z,15.22
2022-08-03T04:04:44.882Z,15.33
2022-08-03T04:07:30.218Z,15.28
2022-08-03T04:10:16.524Z,15.33
2022-08-03T04:12:49.939Z,15.24
2022-08-03T04:15:20.872Z,15.29
2022-08-03T04:17:50.320Z,15.30
2022-08-03T04:20:21.431Z,15.37
2022-08-03T04:22:51.355Z,15.44
2022-08-03T04:25:20.930Z,15.53
2022-08-03T04:28:07.970Z,15.50
2022-08-03T04:30:39.233Z,15.60
2022-08-03T04:33:08.316Z,15.74
2022-08-03T04:36:02.362Z,15.73
2022-08-03T04:38:25.653Z,15.81
2022-08-03T04:40:53.841Z,15.87
2022-08-03T04:43:22.610Z,15.90
2022-08-03T04:45:51.280Z,15.91
2022-08-03T04:48:20.129Z,15.96
2022-08-03T04:50:47.961Z,16.09
2022-08-03T04:53:14.646Z,16.10
2022-08-03T04:55:41.280Z,16.13
2022-08-03T04:58:07.889Z,16.11
2022-08-03T05:00:34.635Z,16.13
2022-08-03T05:03:01.298Z,16.10
2022-08-03T05:05:36.224Z,16.20
2022-08-03T05:08:14.614Z,16.44
2022-08-03T05:10:41.346Z,16.50
2022-08-03T05:13:12.084Z,16.60
2022-08-03T05:15:43.241Z,16.68
2022-08-03T05:18:13.982Z,16.67
2022-08-03T05:20:43.342Z,16.79
2022-08-03T05:23:09.948Z,16.91
2022-08-03T05:25:36.599Z,17.04
2022-08-03T05:28:03.480Z,17.15
2022-08-03T05:30:34.037Z,17.16
2022-08-03T05:33:02.518Z,17.23
2022-08-03T05:35:57.567Z,17.34
2022-08-03T05:38:23.659Z,17.48
2022-08-03T05:40:57.191Z,17.68
2022-08-03T05:43:41.379Z,17.80
2022-08-03T05:46:12.887Z,18.56
2022-08-03T05:48:40.281Z,19.41
2022-08-03T05:51:11.437Z,20.12
2022-08-03T05:53:39.820Z,21.08
2022-08-03T05:56:15.080Z,21.64
2022-08-03T05:58:46.975Z,21.79
2022-08-03T06:01:14.561Z,22.82
2022-08-03T06:03:41.259Z,23.61
2022-08-03T06:06:08.137Z,24.47
2022-08-03T06:08:35.390Z,24.64
2022-08-03T06:11:02.132Z,25.46
2022-08-03T06:13:28.906Z,26.33
2022-08-03T06:15:55.519Z,26.78
2022-08-03T06:18:22.243Z,26.55
2022-08-03T06:20:49.447Z,27.69
2022-08-03T06:23:17.647Z,27.39
2022-08-03T06:25:45.312Z,27.92
2022-08-03T06:28:42.635Z,27.33
2022-08-03T06:31:01.332Z,27.12
2022-08-03T06:34:30.808Z,27.19
2022-08-03T06:36:15.220Z,27.02
2022-08-03T06:38:41.882Z,27.21
2022-08-03T06:41:08.533Z,26.90
2022-08-03T06:43:38.004Z,26.95
2022-08-03T06:46:24.427Z,27.78
2022-08-03T06:48:51.288Z,28.56
2022-08-03T06:51:17.879Z,30.01
2022-08-03T06:53:44.496Z,31.02
2022-08-03T06:56:11.217Z,30.52
2022-08-03T06:58:37.826Z,30.55
2022-08-03T07:01:04.526Z,31.24
2022-08-03T07:03:31.209Z,31.59
2022-08-03T07:05:57.868Z,32.52
2022-08-03T07:08:33.522Z,32.79
2022-08-03T07:11:01.562Z,32.87
2022-08-03T07:13:28.272Z,32.40
2022-08-03T07:15:56.380Z,30.29
2022-08-03T07:18:28.867Z,29.52
2022-08-03T07:20:56.911Z,29.53
2022-08-03T07:23:23.550Z,28.89
2022-08-03T07:25:50.943Z,28.36
2022-08-03T07:28:18.170Z,29.16
2022-08-03T07:30:44.850Z,29.56
2022-08-03T07:33:11.723Z,29.38
2022-08-03T07:35:38.620Z,29.63
2022-08-03T07:38:05.227Z,30.62
2022-08-03T07:40:32.628Z,29.82
2022-08-03T07:43:00.502Z,29.52
2022-08-03T07:45:27.157Z,28.74
2022-08-03T07:47:54.335Z,27.92
2022-08-03T07:50:21.635Z,27.78
2022-08-03T07:52:48.517Z,27.32
2022-08-03T07:55:16.269Z,27.42
2022-08-03T07:57:43.035Z,27.70
2022-08-03T08:00:19.729Z,28.09
2022-08-03T08:02:46.726Z,28.33
2022-08-03T08:05:13.325Z,28.52
2022-08-03T08:07:40.392Z,28.63
2022-08-03T08:10:10.089Z,28.60
2022-08-03T08:12:38.216Z,28.26
2022-08-03T08:15:05.937Z,27.37
2022-08-03T08:17:42.058Z,27.55
2022-08-03T08:20:09.787Z,27.54
2022-08-03T08:22:36.416Z,27.72
2022-08-03T08:25:04.488Z,27.74
2022-08-03T08:28:22.475Z,27.12
2022-08-03T08:30:20.299Z,26.91
2022-08-03T08:32:47.709Z,26.79
2022-08-03T08:35:14.839Z,27.26
2022-08-03T08:37:41.753Z,27.38
2022-08-03T08:40:09.427Z,27.50
2022-08-03T08:42:40.302Z,26.92
2022-08-03T08:45:12.073Z,26.93
2022-08-03T08:47:51.075Z,27.03
2022-08-03T08:50:22.126Z,27.03
2022-08-03T08:52:55.259Z,27.35
2022-08-03T08:55:23.700Z,27.82
2022-08-03T08:57:55.541Z,27.77
2022-08-03T09:00:22.223Z,27.63
2022-08-03T09:02:49.167Z,27.55
2022-08-03T09:05:18.748Z,26.85
2022-08-03T09:07:48.373Z,27.23
2022-08-03T09:10:19.859Z,27.21
2022-08-03T09:12:53.563Z,27.44
2022-08-03T09:15:29.343Z,27.09
2022-08-03T09:17:58.077Z,27.25
2022-08-03T09:20:26.589Z,27.63
2022-08-03T09:22:57.533Z,27.89
2022-08-03T09:25:43.117Z,27.82
2022-08-03T09:28:52.677Z,28.02
2022-08-03T09:31:03.642Z,28.12
2022-08-03T09:33:35.918Z,28.35
2022-08-03T09:36:02.985Z,27.79
2022-08-03T09:38:29.586Z,27.40
2022-08-03T09:41:00.340Z,27.45
2022-08-03T09:43:28.098Z,27.55
2022-08-03T09:46:07.514Z,27.67
2022-08-03T09:48:37.451Z,27.71
2022-08-03T09:51:12.957Z,28.10
2022-08-03T09:53:58.854Z,28.54
2022-08-03T09:56:44.025Z,28.83
2022-08-03T09:59:12.679Z,28.67
2022-08-03T10:01:41.844Z,28.37
2022-08-03T10:04:14.607Z,28.10
2022-08-03T10:06:41.294Z,28.00
2022-08-03T10:09:13.240Z,27.68
2022-08-03T10:11:42.228Z,28.09
2022-08-03T10:14:32.544Z,28.54
2022-08-03T10:16:59.173Z,28.74
2022-08-03T10:19:25.895Z,28.67
2022-08-03T10:21:57.889Z,28.36
2022-08-03T10:24:27.381Z,28.02
2022-08-03T10:27:01.661Z,28.21
2022-08-03T10:29:29.651Z,28.19
2022-08-03T10:31:59.578Z,28.21
2022-08-03T10:34:29.180Z,28.31
2022-08-03T10:37:00.158Z,28.10
2022-08-03T10:39:30.663Z,28.03
2022-08-03T10:42:02.678Z,28.07
2022-08-03T10:44:41.409Z,28.42
2022-08-03T10:47:10.318Z,28.49
2022-08-03T10:49:37.703Z,28.69
2022-08-03T10:52:12.772Z,28.72
2022-08-03T10:55:03.270Z,28.04
2022-08-03T10:57:47.435Z,28.30
2022-08-03T11:00:25.056Z,28.25
2022-08-03T11:03:06.987Z,28.20
2022-08-03T11:05:36.737Z,28.44
2022-08-03T11:08:28.084Z,28.33
2022-08-03T11:11:23.615Z,28.47
2022-08-03T11:14:11.269Z,28.16
2022-08-03T11:16:41.132Z,28.55
2022-08-03T11:19:10.792Z,28.11
2022-08-03T11:21:50.630Z,27.99
2022-08-03T11:24:43.766Z,28.15
2022-08-03T11:27:18.804Z,28.30
2022-08-03T11:30:04.385Z,28.19
2022-08-03T11:32:40.470Z,28.30
2022-08-03T11:35:14.661Z,28.48
2022-08-03T11:38:03.345Z,28.67
2022-08-03T11:40:44.734Z,28.83
2022-08-03T11:43:32.015Z,28.81
2022-08-03T11:46:28.092Z,28.96
2022-08-03T11:49:10.005Z,29.39
2022-08-03T11:51:38.841Z,29.61
2022-08-03T11:54:06.931Z,29.64
2022-08-03T11:56:48.118Z,29.81
2022-08-03T11:59:20.140Z,29.62
2022-08-03T12:01:48.153Z,29.49
2022-08-03T12:04:16.367Z,29.40
2022-08-03T12:06:59.259Z,29.43
2022-08-03T12:09:25.879Z,29.75
2022-08-03T12:12:00.137Z,29.94
2022-08-03T12:14:48.823Z,29.84
2022-08-03T12:17:15.213Z,29.33
2022-08-03T12:19:45.462Z,29.29
2022-08-03T12:22:12.117Z,29.29
2022-08-03T12:24:43.388Z,29.61
2022-08-03T12:27:10.161Z,29.83
2022-08-03T12:29:36.976Z,29.81
2022-08-03T12:32:03.882Z,29.88
2022-08-03T12:34:47.626Z,29.82
2022-08-03T12:37:29.002Z,29.67
2022-08-03T12:40:09.638Z,29.65
2022-08-03T12:42:39.423Z,29.82
2022-08-03T12:45:25.881Z,29.90
2022-08-03T12:47:57.629Z,29.79
2022-08-03T12:50:26.898Z,29.91
2022-08-03T12:52:53.853Z,29.75
2022-08-03T12:55:22.309Z,29.68
2022-08-03T12:57:49.396Z,29.67
2022-08-03T13:00:28.996Z,29.89
2022-08-03T13:03:39.664Z,30.10
2022-08-03T13:05:55.866Z,29.97
2022-08-03T13:08:25.213Z,29.89
2022-08-03T13:10:52.575Z,29.74
2022-08-03T13:13:20.866Z,29.84
2022-08-03T13:15:47.751Z,29.87
2022-08-03T13:18:17.249Z,29.76
2022-08-03T13:20:44.366Z,29.86
2022-08-03T13:23:15.547Z,30.04
2022-08-03T13:25:55.540Z,29.97
2022-08-03T13:28:23.173Z,29.89
2022-08-03T13:30:49.827Z,30.12
2022-08-03T13:33:16.556Z,29.92
2022-08-03T13:35:43.148Z,29.83
2022-08-03T13:38:09.770Z,30.02
2022-08-03T13:40:42.197Z,29.96
2022-08-03T13:43:09.555Z,29.93
2022-08-03T13:45:36.215Z,30.02
2022-08-03T13:48:02.831Z,30.03
2022-08-03T13:50:30.249Z,30.20
2022-08-03T13:52:57.978Z,30.34
2022-08-03T13:55:24.729Z,30.42
2022-08-03T13:58:02.920Z,30.49
2022-08-03T14:00:34.012Z,30.06
2022-08-03T14:03:16.599Z,30.16
2022-08-03T14:05:43.879Z,30.20
2022-08-03T14:08:11.507Z,30.20
2022-08-03T14:10:44.026Z,30.30
2022-08-03T14:13:17.849Z,30.29
2022-08-03T14:15:50.320Z,30.26
2022-08-03T14:18:28.983Z,30.36
2022-08-03T14:21:06.714Z,30.45
2022-08-03T14:23:34.819Z,30.49
2022-08-03T14:26:01.559Z,30.51
2022-08-03T14:28:28.724Z,30.22
2022-08-03T14:30:56.298Z,29.83
2022-08-03T14:33:23.830Z,29.73
2022-08-03T14:35:51.627Z,29.81
2022-08-03T14:38:18.671Z,29.87
2022-08-03T14:40:45.465Z,29.93
2022-08-03T14:43:12.618Z,30.02
2022-08-03T14:45:42.742Z,29.71
2022-08-03T14:50:33.982Z,29.55
2022-08-03T14:50:56.890Z,29.63
2022-08-03T14:53:24.190Z,29.82
2022-08-03T14:55:51.937Z,29.82
2022-08-03T14:58:20.983Z,29.63
2022-08-03T15:00:49.016Z,29.62
2022-08-03T15:03:17.121Z,29.59
2022-08-03T15:05:44.514Z,29.68
2022-08-03T15:08:11.506Z,29.70
2022-08-03T15:10:44.341Z,29.55
2022-08-03T15:13:18.474Z,29.46
2022-08-03T15:15:45.301Z,29.50
2022-08-03T15:18:11.947Z,29.61
2022-08-03T15:20:44.827Z,29.67
2022-08-03T15:23:14.106Z,29.52
2022-08-03T15:26:32.049Z,29.34
2022-08-03T15:28:27.676Z,29.32
2022-08-03T15:30:54.689Z,29.38
2022-08-03T15:33:21.868Z,29.27
2022-08-03T15:35:49.793Z,29.24
2022-08-03T15:38:16.552Z,29.28
2022-08-03T15:40:43.373Z,29.22
2022-08-03T15:43:09.957Z,29.19
2022-08-03T15:45:37.397Z,29.11
2022-08-03T15:48:06.105Z,29.15
2022-08-03T15:50:33.132Z,29.24
2022-08-03T15:52:59.863Z,29.28
2022-08-03T15:55:26.726Z,29.26
2022-08-03T15:59:09.787Z,29.21
2022-08-03T16:00:42.411Z,29.16
2022-08-03T16:03:09.803Z,29.17
2022-08-03T16:05:36.846Z,29.14
2022-08-03T16:08:06.207Z,29.07
2022-08-03T16:10:34.580Z,29.08
2022-08-03T16:13:01.251Z,29.08
2022-08-03T16:15:28.075Z,29.07
2022-08-03T16:17:54.885Z,28.99
2022-08-03T16:20:31.403Z,28.87
2022-08-03T16:23:08.446Z,28.82
2022-08-03T16:25:38.639Z,28.82
2022-08-03T16:28:08.122Z,28.84
2022-08-03T16:30:41.043Z,28.81
2022-08-03T16:33:07.747Z,28.82
2022-08-03T16:35:34.535Z,28.82
2022-08-03T16:38:01.185Z,28.72
2022-08-03T16:40:28.126Z,28.76
2022-08-03T16:42:55.012Z,28.86
2022-08-03T16:45:21.895Z,28.98
2022-08-03T16:47:49.074Z,28.95
2022-08-03T16:50:31.871Z,28.83
2022-08-03T16:52:59.553Z,28.80
2022-08-03T16:55:49.086Z,28.81
2022-08-03T16:58:15.166Z,28.78
2022-08-03T17:00:43.064Z,28.69
2022-08-03T17:03:12.402Z,28.60
2022-08-03T17:05:47.749Z,28.60
2022-08-03T17:08:15.702Z,28.68
2022-08-03T17:10:44.522Z,28.79
2022-08-03T17:13:20.782Z,28.77
2022-08-03T17:16:00.859Z,28.70
2022-08-03T17:18:34.898Z,28.57
2022-08-03T17:21:06.063Z,28.55
2022-08-03T17:23:40.537Z,28.49
2022-08-03T17:26:21.270Z,28.43
2022-08-03T17:28:58.009Z,28.34
2022-08-03T17:31:31.259Z,28.30
2022-08-03T17:34:01.739Z,28.23
2022-08-03T17:37:00.911Z,28.13
2022-08-03T17:39:23.538Z,28.10
2022-08-03T17:42:00.855Z,28.03
2022-08-03T17:44:35.271Z,27.98
2022-08-03T17:47:08.191Z,27.90
2022-08-03T17:49:40.001Z,27.78
2022-08-03T17:52:30.890Z,27.71
2022-08-03T17:55:57.093Z,27.59
2022-08-03T17:58:11.228Z,27.51
2022-08-03T18:01:01.132Z,27.36
2022-08-03T18:03:30.762Z,27.24
2022-08-03T18:06:27.918Z,27.09
2022-08-03T18:09:04.694Z,26.94
2022-08-03T18:11:35.400Z,26.81
2022-08-03T18:14:24.317Z,26.71
2022-08-03T18:17:01.627Z,26.57
2022-08-03T18:20:02.611Z,26.42
2022-08-03T18:22:20.360Z,26.28
2022-08-03T18:24:50.026Z,26.18
2022-08-03T18:27:19.426Z,26.09
2022-08-03T18:29:47.100Z,26.01
2022-08-03T18:32:16.909Z,25.90
2022-08-03T18:34:53.968Z,25.79
2022-08-03T18:37:25.185Z,25.68
2022-08-03T18:39:55.083Z,25.60
2022-08-03T18:42:25.806Z,25.55
2022-08-03T18:44:56.531Z,25.44
2022-08-03T18:47:50.407Z,25.36
2022-08-03T18:50:46.509Z,25.29
2022-08-03T18:53:20.273Z,25.20
2022-08-03T18:56:01.404Z,25.14
2022-08-03T18:58:40.762Z,25.06
2022-08-03T19:01:57.996Z,25.00
2022-08-03T19:04:09.553Z,24.93
2022-08-03T19:06:41.996Z,24.87
2022-08-03T19:09:22.132Z,24.80
2022-08-03T19:12:13.955Z,24.72
2022-08-03T19:14:47.399Z,24.54
2022-08-03T19:17:21.127Z,24.51
2022-08-03T19:19:51.926Z,24.48
2022-08-03T19:22:21.282Z,24.43
2022-08-03T19:24:51.706Z,24.33
2022-08-03T19:27:26.809Z,24.25
2022-08-03T19:30:00.612Z,24.17
2022-08-03T19:32:30.113Z,24.11
2022-08-03T19:34:59.606Z,24.09
2022-08-03T19:37:38.355Z,24.02
2022-08-03T19:40:10.841Z,23.89
2022-08-03T19:42:44.639Z,23.73
2022-08-03T19:45:14.750Z,23.64
2022-08-03T19:48:12.301Z,23.45
2022-08-03T19:50:43.140Z,23.27
2022-08-03T19:53:12.697Z,23.06
2022-08-03T19:55:47.562Z,22.87
2022-08-03T19:58:17.767Z,22.71
2022-08-03T20:00:55.651Z,22.59
2022-08-03T20:03:23.426Z,22.55
2022-08-03T20:05:52.387Z,22.57
2022-08-03T20:08:21.952Z,22.57
2022-08-03T20:10:49.486Z,22.57
2022-08-03T20:13:19.462Z,22.56
2022-08-03T20:15:46.298Z,22.50
2022-08-03T20:18:16.751Z,22.47
2022-08-03T20:20:48.043Z,22.39
2022-08-03T20:23:18.308Z,22.40
2022-08-03T20:25:57.448Z,22.33
2022-08-03T20:28:31.375Z,22.36
2022-08-03T20:33:48.770Z,22.21
2022-08-03T20:36:17.830Z,22.18
2022-08-03T20:38:46.996Z,22.13
2022-08-03T20:41:15.524Z,22.01
2022-08-03T20:43:42.281Z,21.95
2022-08-03T20:46:31.756Z,21.81
2022-08-03T20:48:58.726Z,21.76
2022-08-03T20:51:52.715Z,21.55
2022-08-03T20:54:22.983Z,21.59
2022-08-03T20:56:57.997Z,21.55
2022-08-03T20:59:34.809Z,21.52
2022-08-03T21:02:13.740Z,21.49
2022-08-03T21:04:47.466Z,21.51
2022-08-03T21:07:19.320Z,21.39
2022-08-03T21:09:56.039Z,21.15
2022-08-03T21:12:35.913Z,21.07
2022-08-03T21:13:12.436Z,22.24
2022-08-03T21:15:06.465Z,21.02
2022-08-03T21:17:40.881Z,21.02
2022-08-03T21:20:10.245Z,20.90
2022-08-03T21:22:45.234Z,20.71
2022-08-03T21:25:15.502Z,20.63
2022-08-03T21:27:42.263Z,20.50
2022-08-03T21:30:11.070Z,20.42
2022-08-03T21:32:40.334Z,20.40
2022-08-03T21:35:10.720Z,20.33
2022-08-03T21:37:39.202Z,20.22
2022-08-03T21:40:06.935Z,20.14
2022-08-03T21:42:33.767Z,20.05
2022-08-03T21:45:00.448Z,19.92
2022-08-03T21:47:27.219Z,19.84
2022-08-03T21:50:07.082Z,19.83
2022-08-03T21:52:41.286Z,19.73
2022-08-03T21:55:08.830Z,19.63
2022-08-03T21:57:51.647Z,19.52
2022-08-03T22:00:20.585Z,19.47
2022-08-03T22:02:58.366Z,19.42
2022-08-03T22:05:28.983Z,19.33
2022-08-03T22:08:10.861Z,19.25
2022-08-03T22:10:37.982Z,19.16
2022-08-03T22:13:04.653Z,19.08
2022-08-03T22:15:32.439Z,19.00
2022-08-03T22:18:03.390Z,18.94
2022-08-03T22:20:30.303Z,18.87
2022-08-03T22:23:00.424Z,18.87
2022-08-03T22:25:30.693Z,18.83
2022-08-03T22:28:00.551Z,18.85
2022-08-03T22:30:27.486Z,18.82
2022-08-03T22:32:56.373Z,18.88
2022-08-03T22:35:25.237Z,18.90
2022-08-03T22:37:55.593Z,18.83
2022-08-03T22:40:22.458Z,18.83
2022-08-03T22:42:50.509Z,18.79
2022-08-03T22:45:45.250Z,18.78
2022-08-03T22:48:07.862Z,18.75
2022-08-03T22:50:35.496Z,18.69
2022-08-03T22:53:02.897Z,18.66
2022-08-03T22:55:29.697Z,18.65
2022-08-03T22:57:56.612Z,18.62
2022-08-03T23:00:24.595Z,18.63
2022-08-03T23:02:53.996Z,18.69
2022-08-03T23:06:01.087Z,18.61
2022-08-03T23:08:17.776Z,18.67
2022-08-03T23:10:47.505Z,18.60
2022-08-03T23:13:18.252Z,18.41
2022-08-03T23:15:56.727Z,18.38
2022-08-03T23:18:25.395Z,18.37
2022-08-03T23:20:53.531Z,18.24
2022-08-03T23:23:20.805Z,18.25
2022-08-03T23:25:51.056Z,18.13
2022-08-03T23:28:18.597Z,18.00
2022-08-03T23:30:45.781Z,17.98
2022-08-03T23:33:16.467Z,18.03
2022-08-03T23:36:29.740Z,17.83
2022-08-03T23:38:47.533Z,17.73
2022-08-03T23:41:17.592Z,17.79
2022-08-03T23:43:52.163Z,17.78
2022-08-03T23:46:25.907Z,17.66
2022-08-03T23:48:53.990Z,17.49
2022-08-03T23:51:34.293Z,17.54
2022-08-03T23:54:11.213Z,17.60
2022-08-03T23:56:44.393Z,17.60
2022-08-03T23:59:29.864Z,17.63
